Time;durP1;ratioP1;P1;durP2;ratioP2;P2;SDS_P1;SDS_P2;PMS_P1;PMS_P2;Temp;Humidity;BMP_temperature;BMP_pressure;BME280_temperature;BME280_humidity;BME280_pressure;Samples;Min_cycle;Max_cycle;Signal;HPM_P1;HPM_P2
2021/12/27 00:01:56;;;;;;;25.13;13.48;;;-1.40;99.90;;;;;;5096749;28;20122;-92
2021/12/27 00:04:21;;;;;;;25.58;12.07;;;-1.20;99.90;;;;;;5096643;28;20060;-92
2021/12/27 00:06:52;;;;;;;26.40;13.10;;;-1.00;99.90;;;;;;5101018;28;20046;-92
2021/12/27 00:09:18;;;;;;;26.90;13.65;;;-1.00;99.90;;;;;;5080364;28;20039;-91
2021/12/27 00:11:43;;;;;;;24.92;13.57;;;-1.00;99.90;;;;;;5089717;28;20047;-91
2021/12/27 00:14:09;;;;;;;24.80;13.18;;;-1.00;99.90;;;;;;5096438;28;20039;-91
2021/12/27 00:16:35;;;;;;;24.17;12.07;;;0.00;99.90;;;;;;5110981;28;20039;-91
2021/12/27 00:19:01;;;;;;;26.35;13.10;;;-1.00;99.90;;;;;;5079014;28;20046;-92
2021/12/27 00:21:26;;;;;;;25.60;13.45;;;-1.00;99.90;;;;;;5106851;27;20461;-92
2021/12/27 00:23:52;;;;;;;25.52;12.73;;;-1.00;99.90;;;;;;5096089;28;20060;-92
2021/12/27 00:26:18;;;;;;;27.98;13.50;;;-1.00;99.90;;;;;;5093019;28;20050;-92
2021/12/27 00:28:44;;;;;;;25.50;12.55;;;-1.00;99.90;;;;;;5095252;28;20039;-92
2021/12/27 00:31:09;;;;;;;23.42;12.35;;;-1.00;99.90;;;;;;5094866;28;20023;-92
2021/12/27 00:33:35;;;;;;;28.42;13.82;;;-1.00;99.90;;;;;;5095133;28;20039;-92
2021/12/27 00:36:01;;;;;;;27.20;13.82;;;-1.00;99.90;;;;;;5111373;28;20075;-91
2021/12/27 00:38:27;;;;;;;26.80;13.55;;;-0.30;99.90;;;;;;5084450;28;20134;-91
2021/12/27 00:40:52;;;;;;;24.63;13.07;;;-1.00;99.90;;;;;;5074999;28;20139;-92
2021/12/27 00:43:18;;;;;;;27.63;13.50;;;-1.00;99.90;;;;;;5074357;28;20865;-92
2021/12/27 00:45:44;;;;;;;24.67;14.15;;;-1.10;99.90;;;;;;5078422;28;20104;-91
2021/12/27 00:48:10;;;;;;;25.98;13.65;;;-1.00;99.90;;;;;;5074743;28;20547;-91
2021/12/27 00:50:36;;;;;;;28.20;14.50;;;-1.10;99.90;;;;;;5110234;28;20061;-91
2021/12/27 00:53:05;;;;;;;24.20;13.23;;;-0.30;99.90;;;;;;5088648;28;20119;-92
2021/12/27 00:55:31;;;;;;;23.17;13.40;;;-1.10;99.90;;;;;;5065628;28;20047;-92
2021/12/27 00:57:56;;;;;;;27.13;13.35;;;-1.10;99.90;;;;;;5073917;28;20100;-92
2021/12/27 01:00:25;;;;;;;27.65;12.68;;;-1.10;99.90;;;;;;5075495;28;20514;-92
2021/12/27 01:02:53;;;;;;;26.25;13.07;;;-0.70;99.90;;;;;;5079903;28;20400;-92
2021/12/27 01:05:20;;;;;;;26.25;13.90;;;-0.40;99.90;;;;;;5096194;27;20043;-93
2021/12/27 01:07:46;;;;;;;25.27;12.65;;;-1.10;99.90;;;;;;5086983;28;20819;-94
2021/12/27 01:17:47;;;;;;;26.42;14.50;;;-1.20;99.90;;;;;;5094416;28;20043;-92
2021/12/27 01:20:21;;;;;;;24.25;12.75;;;-1.20;99.90;;;;;;5097621;28;20067;-94
2021/12/27 01:22:47;;;;;;;26.00;14.30;;;-1.20;99.90;;;;;;5088027;27;20138;-92
2021/12/27 01:25:20;;;;;;;27.30;13.60;;;-1.20;99.90;;;;;;5096712;27;20535;-92
2021/12/27 01:27:46;;;;;;;28.30;14.27;;;-1.20;99.90;;;;;;5077397;28;20027;-93
2021/12/27 01:30:16;;;;;;;24.73;13.70;;;-1.20;99.90;;;;;;5077085;27;20671;-86
2021/12/27 01:32:49;;;;;;;26.52;13.48;;;-1.20;99.90;;;;;;5070305;28;20396;-86
2021/12/27 01:35:16;;;;;;;26.45;13.73;;;-1.20;99.90;;;;;;5089128;27;20138;-86
2021/12/27 01:37:41;;;;;;;28.83;13.95;;;-1.20;99.90;;;;;;5068894;28;20530;-86
2021/12/27 01:40:09;;;;;;;26.35;13.95;;;-1.20;99.90;;;;;;5068558;28;20060;-85
2021/12/27 01:42:35;;;;;;;30.10;13.65;;;-1.20;99.90;;;;;;5048726;28;20039;-85
2021/12/27 01:45:01;;;;;;;29.17;14.23;;;-1.20;99.90;;;;;;5064742;27;20043;-85
2021/12/27 01:47:29;;;;;;;27.20;14.77;;;-1.20;99.90;;;;;;5093235;28;20373;-85
2021/12/27 01:49:55;;;;;;;30.02;15.43;;;-0.20;99.90;;;;;;5069912;28;20035;-85
2021/12/27 01:52:21;;;;;;;28.35;14.65;;;-1.20;99.90;;;;;;5070374;28;20403;-86
2021/12/27 01:54:47;;;;;;;26.83;14.00;;;-1.20;99.90;;;;;;5069048;28;20131;-85
2021/12/27 01:57:12;;;;;;;26.45;13.98;;;-1.20;99.90;;;;;;5086482;28;20392;-85
2021/12/27 01:59:39;;;;;;;29.40;14.23;;;-0.40;99.90;;;;;;5072190;27;21178;-85
2021/12/27 02:02:04;;;;;;;28.20;14.48;;;-1.20;99.90;;;;;;5087103;28;20044;-85
2021/12/27 02:04:30;;;;;;;27.48;15.88;;;-1.20;99.90;;;;;;5068336;28;20043;-84
2021/12/27 02:06:55;;;;;;;29.33;14.68;;;-1.20;99.90;;;;;;5086643;28;20043;-86
2021/12/27 02:09:29;;;;;;;27.20;14.38;;;-1.20;99.90;;;;;;5068424;28;20043;-85
2021/12/27 02:11:55;;;;;;;28.63;14.18;;;-1.20;99.90;;;;;;5068474;28;20043;-85
2021/12/27 02:14:21;;;;;;;28.83;14.40;;;-1.20;99.90;;;;;;5094186;27;20051;-85
2021/12/27 02:16:46;;;;;;;28.80;15.13;;;-1.20;99.90;;;;;;5048293;28;20044;-86
2021/12/27 02:19:12;;;;;;;27.02;14.32;;;-1.20;99.90;;;;;;5059680;28;20074;-85
2021/12/27 02:21:38;;;;;;;28.98;15.82;;;-1.20;99.90;;;;;;5058475;28;20043;-86
2021/12/27 02:24:07;;;;;;;26.73;13.68;;;-1.20;99.90;;;;;;5060467;28;20043;-86
2021/12/27 02:26:33;;;;;;;27.98;14.77;;;-1.20;99.90;;;;;;5066966;28;20048;-86
2021/12/27 02:28:59;;;;;;;28.17;15.02;;;-1.20;99.90;;;;;;5063069;28;20035;-85
2021/12/27 02:31:27;;;;;;;29.25;15.13;;;-1.20;99.90;;;;;;5070653;28;20485;-85
2021/12/27 02:33:53;;;;;;;27.58;15.73;;;-1.20;99.90;;;;;;5060805;28;20040;-85
2021/12/27 02:36:19;;;;;;;30.15;15.82;;;-1.20;99.90;;;;;;5083450;28;20155;-86
2021/12/27 02:38:46;;;;;;;25.00;13.20;;;-0.20;99.90;;;;;;5117144;27;20057;-85
2021/12/27 02:41:12;;;;;;;29.23;16.00;;;-1.20;99.90;;;;;;5093691;27;20065;-85
2021/12/27 02:43:43;;;;;;;27.33;14.20;;;-1.20;99.90;;;;;;5111064;27;20031;-85
2021/12/27 02:46:12;;;;;;;28.88;15.38;;;-1.20;99.90;;;;;;5111189;27;20058;-85
2021/12/27 02:48:41;;;;;;;32.17;14.75;;;-1.20;99.90;;;;;;5110223;27;20039;-85
2021/12/27 02:51:08;;;;;;;27.77;14.20;;;-1.20;99.90;;;;;;5110467;27;20488;-86
2021/12/27 02:53:33;;;;;;;28.00;14.93;;;-1.10;99.90;;;;;;5129069;27;20133;-86
2021/12/27 02:56:00;;;;;;;28.63;14.52;;;-1.10;99.90;;;;;;5121800;27;20130;-86
2021/12/27 02:58:27;;;;;;;29.13;14.70;;;-1.10;99.90;;;;;;5073083;28;20591;-86
2021/12/27 03:00:57;;;;;;;27.85;14.57;;;-1.10;99.90;;;;;;5109269;27;20040;-86
2021/12/27 03:03:23;;;;;;;30.08;14.90;;;-1.10;99.90;;;;;;5096691;27;20031;-86
2021/12/27 03:05:49;;;;;;;27.52;15.32;;;-0.90;99.90;;;;;;5091785;27;20050;-86
2021/12/27 03:08:16;;;;;;;31.92;16.17;;;-1.10;99.90;;;;;;5113091;27;20046;-86
2021/12/27 03:10:45;;;;;;;27.95;15.02;;;-1.10;99.90;;;;;;5100875;27;20054;-86
2021/12/27 03:13:20;;;;;;;27.90;15.65;;;-1.00;99.90;;;;;;5110967;27;20062;-85
2021/12/27 03:15:52;;;;;;;29.17;15.85;;;-1.00;99.90;;;;;;5109211;27;20043;-86
2021/12/27 03:18:18;;;;;;;29.77;15.52;;;-1.00;99.90;;;;;;5109365;27;20178;-86
2021/12/27 03:20:44;;;;;;;28.27;15.30;;;-1.00;99.90;;;;;;5091421;27;20046;-86
2021/12/27 03:23:10;;;;;;;27.67;14.88;;;-1.00;99.90;;;;;;5092012;27;20543;-86
2021/12/27 03:25:36;;;;;;;30.42;15.88;;;-1.00;99.90;;;;;;5087634;27;20087;-85
2021/12/27 03:28:02;;;;;;;28.30;15.23;;;-1.00;99.90;;;;;;5118366;27;20027;-86
2021/12/27 03:30:28;;;;;;;28.95;16.15;;;-0.90;99.90;;;;;;5082011;27;20792;-85
2021/12/27 03:32:54;;;;;;;29.60;16.13;;;-1.00;99.90;;;;;;5087610;27;20043;-86
2021/12/27 03:35:27;;;;;;;27.45;14.88;;;-0.90;99.90;;;;;;5086123;27;20055;-86
2021/12/27 03:37:55;;;;;;;29.83;15.50;;;-0.90;99.90;;;;;;5095054;27;20040;-85
2021/12/27 03:40:22;;;;;;;33.08;15.85;;;-0.90;99.90;;;;;;5085913;28;20071;-85
2021/12/27 03:42:51;;;;;;;29.20;15.77;;;-0.90;99.90;;;;;;5064191;28;20040;-86
2021/12/27 03:45:21;;;;;;;35.05;16.42;;;-0.90;99.90;;;;;;5064504;28;20040;-85
2021/12/27 03:47:48;;;;;;;29.55;16.23;;;-0.90;99.90;;;;;;5081310;28;20047;-85
2021/12/27 03:50:14;;;;;;;31.17;16.55;;;-0.90;99.90;;;;;;5085814;28;20044;-85
2021/12/27 03:52:40;;;;;;;31.00;16.58;;;-0.90;99.90;;;;;;5068246;28;20412;-85
2021/12/27 03:55:07;;;;;;;34.03;16.67;;;-0.90;99.90;;;;;;5085697;28;20043;-86
2021/12/27 03:57:35;;;;;;;30.00;16.17;;;-0.90;99.90;;;;;;5072762;28;20096;-86
2021/12/27 04:02:40;;;;;;;31.00;15.77;;;-0.90;99.90;;;;;;5088953;28;20039;-86
2021/12/27 04:05:09;;;;;;;30.48;16.40;;;-0.80;99.90;;;;;;5072496;28;20054;-86
2021/12/27 04:07:36;;;;;;;30.48;15.55;;;-0.80;99.90;;;;;;5079421;28;20049;-85
2021/12/27 04:10:08;;;;;;;27.80;14.93;;;-0.80;99.90;;;;;;5092795;28;20112;-86
2021/12/27 04:12:34;;;;;;;31.65;16.10;;;-0.80;99.90;;;;;;5070625;28;20103;-86
2021/12/27 04:15:01;;;;;;;30.00;16.95;;;-0.80;99.90;;;;;;5091589;28;20043;-85
2021/12/27 04:17:27;;;;;;;30.98;17.10;;;-0.80;99.90;;;;;;5089794;28;20138;-86
2021/12/27 04:19:52;;;;;;;29.05;16.60;;;-0.80;99.90;;;;;;5088069;28;20392;-86
2021/12/27 04:22:18;;;;;;;29.98;17.27;;;-0.80;99.90;;;;;;5082447;28;20087;-85
2021/12/27 04:24:44;;;;;;;33.45;17.35;;;-0.70;99.90;;;;;;5088310;28;20050;-86
2021/12/27 04:27:10;;;;;;;31.80;16.83;;;-0.80;99.90;;;;;;5074894;28;20043;-86
2021/12/27 04:29:35;;;;;;;34.95;17.65;;;0.20;99.90;;;;;;5097911;28;20079;-86
2021/12/27 04:32:01;;;;;;;33.13;17.42;;;-0.80;99.90;;;;;;5087405;28;20055;-85
2021/12/27 04:34:27;;;;;;;34.58;18.50;;;0.20;99.90;;;;;;5071725;28;20058;-88
2021/12/27 04:36:52;;;;;;;32.90;17.27;;;-0.80;99.90;;;;;;5092325;28;20527;-86
2021/12/27 04:39:18;;;;;;;32.05;17.90;;;-0.80;99.90;;;;;;5094555;28;20081;-86
2021/12/27 04:41:44;;;;;;;29.10;16.80;;;-0.80;99.90;;;;;;5091917;28;20547;-86
2021/12/27 04:44:09;;;;;;;34.08;18.80;;;-0.80;99.90;;;;;;5075812;28;20587;-86
2021/12/27 04:46:35;;;;;;;34.38;16.90;;;-0.70;99.90;;;;;;5074564;28;20047;-86
2021/12/27 04:49:01;;;;;;;32.08;17.98;;;-0.80;99.90;;;;;;5075181;28;20399;-86
2021/12/27 04:51:27;;;;;;;33.28;17.65;;;-0.70;99.90;;;;;;5090126;27;20104;-86
2021/12/27 04:53:53;;;;;;;29.85;16.80;;;-0.70;99.90;;;;;;5111764;27;20050;-85
2021/12/27 04:56:19;;;;;;;32.08;17.33;;;-0.70;99.90;;;;;;5074637;28;20503;-86
2021/12/27 04:58:46;;;;;;;32.75;17.83;;;-0.70;99.90;;;;;;5070541;28;20047;-87
2021/12/27 05:01:13;;;;;;;34.92;19.40;;;-0.70;99.90;;;;;;5074889;28;20132;-86
2021/12/27 05:03:39;;;;;;;34.17;18.92;;;-0.50;99.90;;;;;;5075206;28;20077;-86
2021/12/27 05:06:06;;;;;;;34.05;19.10;;;-0.70;99.90;;;;;;5075919;28;20047;-86
2021/12/27 05:08:32;;;;;;;36.35;18.48;;;-0.70;99.90;;;;;;5073248;28;20047;-87
2021/12/27 05:10:57;;;;;;;33.00;17.88;;;-0.70;99.90;;;;;;5082963;28;20047;-86
2021/12/27 05:13:23;;;;;;;36.05;17.55;;;0.40;99.90;;;;;;5069227;28;20120;-86
2021/12/27 05:15:49;;;;;;;34.22;17.95;;;-0.70;99.90;;;;;;5070126;28;20503;-85
2021/12/27 05:18:15;;;;;;;39.65;20.67;;;-0.60;99.90;;;;;;5092219;28;20079;-86
2021/12/27 05:20:40;;;;;;;34.22;19.08;;;-0.60;99.90;;;;;;5076140;28;20043;-86
2021/12/27 05:23:06;;;;;;;38.40;18.67;;;-0.70;99.90;;;;;;5075511;28;20537;-87
2021/12/27 05:25:32;;;;;;;35.03;19.58;;;-0.60;99.90;;;;;;5074711;28;20134;-86
2021/12/27 05:27:58;;;;;;;41.65;23.50;;;-0.70;99.90;;;;;;5079589;28;20151;-87
2021/12/27 05:30:23;;;;;;;39.22;20.58;;;-0.60;99.90;;;;;;5075378;28;20047;-87
2021/12/27 05:32:49;;;;;;;39.75;20.42;;;-0.70;99.90;;;;;;5075153;28;20323;-86
2021/12/27 05:35:15;;;;;;;38.10;19.70;;;-0.70;99.90;;;;;;5099354;27;20788;-86
2021/12/27 05:37:42;;;;;;;40.78;21.13;;;-0.70;99.90;;;;;;5073435;28;20046;-87
2021/12/27 05:40:11;;;;;;;40.50;21.35;;;-0.70;99.90;;;;;;5066261;27;20058;-87
2021/12/27 05:42:37;;;;;;;41.08;22.38;;;-0.60;99.90;;;;;;5061575;27;20070;-86
2021/12/27 05:45:06;;;;;;;40.60;21.15;;;-0.70;99.90;;;;;;5069449;28;20071;-86
2021/12/27 05:47:32;;;;;;;37.25;20.98;;;-0.60;99.90;;;;;;5064364;28;20130;-85
2021/12/27 05:49:58;;;;;;;48.50;23.77;;;-0.60;99.90;;;;;;5078000;28;20132;-86
2021/12/27 05:52:23;;;;;;;45.78;23.58;;;-0.60;99.90;;;;;;5080186;28;20492;-87
2021/12/27 05:54:49;;;;;;;41.50;21.10;;;-0.60;99.90;;;;;;5063053;28;20336;-87
2021/12/27 05:57:15;;;;;;;46.97;23.10;;;-0.60;99.90;;;;;;5073784;27;20074;-86
2021/12/27 05:59:40;;;;;;;46.80;22.95;;;-0.60;99.90;;;;;;5069105;28;20032;-87
2021/12/27 06:02:06;;;;;;;45.90;22.83;;;0.70;99.90;;;;;;5061422;28;20040;-87
2021/12/27 06:04:32;;;;;;;47.72;23.65;;;-0.60;99.90;;;;;;5059706;27;20090;-86
2021/12/27 06:06:57;;;;;;;51.90;23.75;;;-0.60;99.90;;;;;;5077332;27;20039;-86
2021/12/27 06:09:23;;;;;;;54.00;25.15;;;-0.60;99.90;;;;;;5077777;28;20090;-85
2021/12/27 06:11:49;;;;;;;44.10;23.33;;;-0.70;99.90;;;;;;5083305;28;20127;-87
2021/12/27 06:14:14;;;;;;;50.35;24.38;;;-0.60;99.90;;;;;;5076909;28;20530;-87
2021/12/27 06:16:40;;;;;;;46.45;23.75;;;-0.60;99.90;;;;;;5056192;28;20396;-87
2021/12/27 06:19:06;;;;;;;52.60;25.33;;;-0.60;99.90;;;;;;5060518;28;20089;-86
2021/12/27 06:21:33;;;;;;;48.42;22.00;;;-0.60;99.90;;;;;;5061755;28;20040;-87
2021/12/27 06:24:00;;;;;;;47.97;25.02;;;-0.60;99.90;;;;;;5059966;28;20039;-87
2021/12/27 06:26:26;;;;;;;51.95;24.75;;;-0.60;99.90;;;;;;5078135;28;20043;-87
2021/12/27 06:28:51;;;;;;;48.95;22.65;;;-0.50;99.90;;;;;;5068221;28;20403;-87
2021/12/27 06:31:17;;;;;;;47.13;23.77;;;-0.50;99.90;;;;;;5083822;28;20046;-87
2021/12/27 06:33:43;;;;;;;54.72;25.42;;;-0.50;99.90;;;;;;5070652;28;20119;-87
2021/12/27 06:36:09;;;;;;;58.15;26.40;;;-0.50;99.90;;;;;;5072236;28;20083;-86
2021/12/27 06:38:34;;;;;;;52.00;25.55;;;-0.50;99.90;;;;;;5093493;27;20150;-87
2021/12/27 06:41:01;;;;;;;54.25;23.90;;;-0.50;99.90;;;;;;5108169;27;20047;-87
2021/12/27 06:43:28;;;;;;;59.90;26.25;;;-0.50;99.90;;;;;;5086955;27;20046;-86
2021/12/27 06:45:54;;;;;;;54.25;23.48;;;-0.50;99.90;;;;;;5105584;27;20411;-86
2021/12/27 06:48:20;;;;;;;54.65;23.40;;;-0.40;99.90;;;;;;5091536;27;20055;-86
2021/12/27 06:50:45;;;;;;;45.63;23.30;;;-0.50;99.90;;;;;;5088171;27;20042;-86
2021/12/27 06:53:11;;;;;;;51.47;23.02;;;-0.40;99.90;;;;;;5088562;27;20051;-86
2021/12/27 06:55:37;;;;;;;57.53;25.30;;;-0.40;99.90;;;;;;5091876;27;20593;-87
2021/12/27 06:58:03;;;;;;;57.67;25.38;;;-0.40;99.90;;;;;;5092427;27;20050;-87
2021/12/27 07:00:28;;;;;;;55.50;24.13;;;-0.40;99.90;;;;;;5108915;27;20054;-86
2021/12/27 07:02:54;;;;;;;55.40;24.63;;;-0.40;99.90;;;;;;5084115;27;20043;-86
2021/12/27 07:05:20;;;;;;;62.72;25.13;;;-0.40;99.90;;;;;;5078832;27;20047;-87
2021/12/27 07:07:45;;;;;;;52.83;23.50;;;-0.40;99.90;;;;;;5082284;27;20046;-87
2021/12/27 07:10:19;;;;;;;60.40;24.70;;;-0.40;99.90;;;;;;5095120;27;20043;-86
2021/12/27 07:12:45;;;;;;;50.15;23.98;;;-0.30;99.90;;;;;;5083798;27;20061;-86
2021/12/27 07:15:11;;;;;;;55.00;26.58;;;-0.30;99.90;;;;;;5077212;27;20545;-87
2021/12/27 07:17:37;;;;;;;53.95;23.80;;;-0.30;99.90;;;;;;5094344;27;20065;-87
2021/12/27 07:20:04;;;;;;;44.95;22.48;;;-0.30;99.90;;;;;;5077792;27;20051;-87
2021/12/27 07:22:31;;;;;;;52.60;24.15;;;-0.30;99.90;;;;;;5077246;27;20047;-86
2021/12/27 07:24:56;;;;;;;55.08;25.00;;;-0.40;99.90;;;;;;5076893;27;20096;-87
2021/12/27 07:27:22;;;;;;;54.47;22.98;;;0.90;99.90;;;;;;5095408;27;20035;-87
2021/12/27 07:29:48;;;;;;;57.38;24.90;;;-0.20;99.90;;;;;;5076484;27;20264;-86
2021/12/27 07:32:13;;;;;;;51.22;24.20;;;0.20;99.90;;;;;;5078691;27;20043;-87
2021/12/27 07:34:40;;;;;;;52.15;24.75;;;-0.20;99.90;;;;;;5093184;27;20043;-87
2021/12/27 07:37:06;;;;;;;50.15;23.40;;;-0.20;99.90;;;;;;5111564;27;20038;-86
2021/12/27 07:39:33;;;;;;;55.30;24.75;;;-0.20;99.90;;;;;;5103691;27;20683;-87
2021/12/27 07:41:58;;;;;;;59.25;25.35;;;0.40;99.90;;;;;;5084351;27;20059;-85
2021/12/27 07:44:24;;;;;;;59.40;25.50;;;-0.20;99.90;;;;;;5108442;27;20523;-87
2021/12/27 07:46:51;;;;;;;65.72;26.30;;;-0.20;99.90;;;;;;5106206;27;20066;-88
2021/12/27 07:49:17;;;;;;;61.00;26.85;;;-0.20;99.90;;;;;;5084151;28;20042;-87
2021/12/27 07:51:44;;;;;;;67.90;27.17;;;-0.20;99.90;;;;;;5070423;28;20043;-88
2021/12/27 07:54:10;;;;;;;66.63;25.30;;;-0.20;99.90;;;;;;5080732;27;20042;-88
2021/12/27 07:56:37;;;;;;;66.50;27.45;;;-0.20;99.90;;;;;;5085598;28;20287;-87
2021/12/27 07:59:04;;;;;;;68.82;28.85;;;-0.20;99.90;;;;;;5075115;28;20056;-87
2021/12/27 08:01:32;;;;;;;65.50;26.20;;;-0.20;99.90;;;;;;5100229;28;20054;-87
2021/12/27 08:03:57;;;;;;;63.13;25.90;;;-0.10;99.90;;;;;;5086105;27;20457;-88
2021/12/27 08:06:23;;;;;;;65.45;24.92;;;-0.10;99.90;;;;;;5088532;28;20133;-87
2021/12/27 08:09:04;;;;;;;80.57;29.50;;;-0.10;99.90;;;;;;5084496;28;20050;-87
2021/12/27 08:11:30;;;;;;;80.40;29.27;;;1.40;99.90;;;;;;5089211;27;20392;-87
2021/12/27 08:13:56;;;;;;;71.35;28.38;;;0.70;99.90;;;;;;5105658;27;20043;-87
2021/12/27 08:16:24;;;;;;;72.00;26.98;;;-0.10;99.90;;;;;;5089349;28;21406;-87
2021/12/27 08:18:56;;;;;;;74.53;29.02;;;-0.10;99.90;;;;;;5079101;27;20043;-87
2021/12/27 08:21:24;;;;;;;79.57;31.17;;;-0.10;99.90;;;;;;5095433;27;20058;-88
2021/12/27 08:23:50;;;;;;;83.97;28.48;;;0.50;99.90;;;;;;5090796;28;20036;-87
2021/12/27 08:26:18;;;;;;;74.18;28.85;;;-0.10;99.90;;;;;;5074320;27;20051;-88
2021/12/27 08:28:45;;;;;;;74.22;29.30;;;0.00;99.90;;;;;;5081677;27;20039;-87
2021/12/27 08:31:11;;;;;;;75.03;29.08;;;0.00;99.90;;;;;;5092200;27;20034;-87
2021/12/27 08:33:37;;;;;;;69.10;26.23;;;0.70;99.90;;;;;;5088566;27;20099;-88
2021/12/27 08:36:03;;;;;;;73.97;28.85;;;0.00;99.90;;;;;;5091673;27;20032;-87
2021/12/27 08:38:28;;;;;;;82.95;30.13;;;0.00;99.90;;;;;;5111984;27;20119;-87
2021/12/27 08:40:55;;;;;;;87.43;30.92;;;0.00;99.90;;;;;;5098344;28;20051;-88
2021/12/27 08:43:21;;;;;;;95.53;29.95;;;0.00;99.90;;;;;;5091372;27;20050;-88
2021/12/27 08:45:46;;;;;;;89.03;29.88;;;0.90;99.90;;;;;;5082272;27;20047;-88
2021/12/27 08:48:12;;;;;;;101.32;34.97;;;0.00;99.90;;;;;;5094682;27;20039;-87
2021/12/27 08:50:42;;;;;;;94.18;31.58;;;0.00;99.90;;;;;;5097847;27;20064;-87
2021/12/27 08:53:08;;;;;;;93.50;31.30;;;0.00;99.90;;;;;;5070517;27;20433;-87
2021/12/27 08:55:36;;;;;;;95.70;31.05;;;0.10;99.90;;;;;;5074188;27;20039;-88
2021/12/27 08:58:04;;;;;;;105.97;36.00;;;0.10;99.90;;;;;;5080869;27;20043;-86
2021/12/27 09:00:31;;;;;;;106.03;31.83;;;0.10;99.90;;;;;;5070377;27;20106;-86
2021/12/27 09:02:57;;;;;;;108.90;33.72;;;0.10;99.90;;;;;;5074099;27;20031;-88
2021/12/27 09:05:23;;;;;;;86.90;30.20;;;1.10;99.90;;;;;;5082939;27;20079;-88
2021/12/27 09:07:48;;;;;;;98.03;32.58;;;0.10;99.90;;;;;;5084317;27;20043;-88
2021/12/27 09:13:07;;;;;;;101.22;33.13;;;0.10;99.90;;;;;;5085086;27;20035;-89
2021/12/27 09:15:33;;;;;;;114.90;35.40;;;1.00;99.90;;;;;;5112439;27;21860;-90
2021/12/27 09:17:59;;;;;;;112.22;33.95;;;-0.20;99.90;;;;;;5081780;27;20290;-87
2021/12/27 09:20:27;;;;;;;95.97;29.95;;;0.20;99.90;;;;;;5100719;28;20043;-88
2021/12/27 09:22:53;;;;;;;105.70;31.83;;;0.40;99.90;;;;;;5084171;27;20058;-87
2021/12/27 09:25:19;;;;;;;132.93;37.95;;;1.30;99.90;;;;;;5100163;27;20075;-89
2021/12/27 09:27:45;;;;;;;101.30;31.58;;;-0.20;99.90;;;;;;5088592;27;20054;-88
2021/12/27 09:30:14;;;;;;;134.13;37.00;;;0.00;99.90;;;;;;5086876;27;20031;-87
2021/12/27 09:32:40;;;;;;;130.48;37.75;;;-0.50;99.90;;;;;;5083211;27;20096;-88
2021/12/27 09:35:06;;;;;;;160.73;42.80;;;1.00;99.90;;;;;;5080596;27;20043;-88
2021/12/27 09:37:32;;;;;;;108.47;34.50;;;0.30;99.90;;;;;;5081756;27;20047;-88
2021/12/27 09:39:58;;;;;;;122.03;35.45;;;0.00;99.90;;;;;;5079279;27;20100;-88
2021/12/27 09:42:26;;;;;;;127.43;40.58;;;0.30;99.90;;;;;;5106654;27;20745;-89
2021/12/27 09:44:53;;;;;;;118.35;33.85;;;0.30;99.90;;;;;;5090286;27;20075;-89
2021/12/27 09:47:20;;;;;;;116.88;33.47;;;0.30;99.90;;;;;;5084217;28;20046;-88
2021/12/27 09:49:47;;;;;;;93.10;29.30;;;0.30;99.90;;;;;;5097217;28;20032;-88
2021/12/27 09:52:13;;;;;;;96.53;32.95;;;0.30;99.90;;;;;;5079757;28;20400;-87
2021/12/27 09:54:46;;;;;;;94.50;31.65;;;0.30;99.90;;;;;;5077607;28;20445;-88
2021/12/27 09:57:13;;;;;;;90.85;29.95;;;0.20;99.90;;;;;;5078604;27;20031;-90
2021/12/27 09:59:42;;;;;;;81.57;28.52;;;0.30;99.90;;;;;;5106264;27;20455;-87
2021/12/27 10:02:11;;;;;;;88.68;28.65;;;0.50;99.90;;;;;;5073290;27;20031;-88
2021/12/27 10:04:50;;;;;;;82.07;28.77;;;0.00;99.90;;;;;;5085529;27;20042;-88
2021/12/27 10:07:23;;;;;;;95.50;31.83;;;0.40;99.90;;;;;;5099847;27;20035;-88
2021/12/27 10:09:54;;;;;;;77.07;28.63;;;1.50;99.90;;;;;;5119352;27;20054;-89
2021/12/27 10:12:24;;;;;;;80.70;28.17;;;1.70;99.90;;;;;;5073782;28;20051;-89
2021/12/27 10:15:01;;;;;;;86.93;30.33;;;0.10;99.90;;;;;;5066702;27;20044;-89
2021/12/27 10:17:35;;;;;;;90.45;29.88;;;0.10;99.90;;;;;;5083105;27;20046;-89
2021/12/27 10:20:28;;;;;;;93.57;29.83;;;1.50;99.90;;;;;;5082570;28;20121;-88
2021/12/27 10:22:56;;;;;;;87.25;30.40;;;0.90;99.90;;;;;;5069655;27;20495;-87
2021/12/27 10:25:26;;;;;;;90.05;30.55;;;1.70;99.90;;;;;;5079634;27;20046;-87
2021/12/27 10:27:58;;;;;;;104.75;33.53;;;2.00;99.90;;;;;;5082656;28;20031;-89
2021/12/27 10:30:29;;;;;;;111.60;30.02;;;0.60;99.90;;;;;;5078461;28;20408;-86
2021/12/27 10:33:15;;;;;;;99.38;28.73;;;0.50;99.90;;;;;;5067025;27;20151;-88
2021/12/27 10:35:44;;;;;;;104.13;30.30;;;0.60;99.90;;;;;;5101888;27;20047;-87
2021/12/27 10:38:31;;;;;;;107.88;31.95;;;0.60;99.90;;;;;;5079367;27;20096;-86
2021/12/27 10:41:17;;;;;;;160.98;36.13;;;0.60;99.90;;;;;;5065309;27;20051;-87
2021/12/27 10:43:50;;;;;;;141.00;33.20;;;0.70;99.90;;;;;;5081185;28;20431;-87
2021/12/27 10:46:18;;;;;;;159.38;40.15;;;0.70;99.90;;;;;;5080783;27;20058;-88
2021/12/27 10:49:03;;;;;;;120.22;33.97;;;0.50;99.90;;;;;;5091328;27;20046;-86
2021/12/27 10:51:30;;;;;;;142.93;33.53;;;0.70;99.90;;;;;;5079174;27;20510;-87
2021/12/27 10:53:58;;;;;;;128.45;32.42;;;0.80;99.90;;;;;;5129875;27;20477;-87
2021/12/27 10:56:50;;;;;;;166.88;35.95;;;0.60;99.90;;;;;;5092493;27;20051;-88
2021/12/27 10:59:47;;;;;;;144.93;32.53;;;2.30;99.90;;;;;;5079901;27;20177;-86
2021/12/27 11:03:02;;;;;;;147.38;33.40;;;1.50;99.90;;;;;;5053550;28;20543;-88
2021/12/27 11:09:09;;;;;;;140.40;32.50;;;1.70;99.90;;;;;;5071116;28;20084;-85
2021/12/27 11:11:36;;;;;;;180.52;38.97;;;0.90;99.90;;;;;;5055368;28;20055;-86
2021/12/27 11:14:16;;;;;;;202.65;43.95;;;1.60;99.90;;;;;;5050422;28;20036;-87
2021/12/27 11:16:42;;;;;;;180.02;39.00;;;1.80;99.90;;;;;;5022431;28;20941;-87
2021/12/27 11:19:08;;;;;;;143.93;36.10;;;1.80;99.90;;;;;;5035604;28;20040;-87
2021/12/27 11:21:41;;;;;;;149.90;36.47;;;2.20;99.90;;;;;;5038315;28;20051;-86
2021/12/27 11:24:11;;;;;;;129.20;32.70;;;1.00;99.90;;;;;;5048454;28;20047;-88
2021/12/27 11:26:40;;;;;;;127.28;34.55;;;2.60;99.90;;;;;;5024350;28;20083;-86
2021/12/27 11:29:17;;;;;;;158.00;37.40;;;1.10;99.90;;;;;;5012065;28;20421;-85
2021/12/27 11:36:05;;;;;;;193.30;40.20;;;1.20;99.90;;;;;;5094407;27;20063;-85
2021/12/27 11:39:06;;;;;;;182.25;38.72;;;1.30;99.90;;;;;;5058174;28;20515;-85
2021/12/27 11:45:07;;;;;;;150.52;34.30;;;0.80;99.90;;;;;;5088238;28;20337;-86
2021/12/27 11:47:33;;;;;;;209.02;39.75;;;2.20;99.90;;;;;;5089974;27;20297;-85
2021/12/27 11:50:05;;;;;;;191.32;37.33;;;2.60;99.90;;;;;;5086714;27;20053;-85
2021/12/27 11:52:33;;;;;;;207.85;35.97;;;1.20;99.90;;;;;;5068069;27;20399;-86
2021/12/27 11:55:03;;;;;;;197.48;37.13;;;1.30;99.90;;;;;;5087596;27;20514;-86
2021/12/27 11:58:09;;;;;;;240.25;39.38;;;1.70;99.90;;;;;;5072576;28;20050;-86
2021/12/27 12:00:50;;;;;;;114.50;30.90;;;1.30;99.90;;;;;;5067149;28;21777;-86
2021/12/27 12:03:20;;;;;;;188.47;37.57;;;1.40;99.90;;;;;;5101437;28;20072;-95
2021/12/27 12:05:55;;;;;;;225.27;41.65;;;1.10;99.90;;;;;;5086068;28;20082;-91
2021/12/27 12:08:49;;;;;;;205.70;40.83;;;1.20;99.90;;;;;;5110625;27;20134;-94
2021/12/27 12:11:15;;;;;;;196.30;46.65;;;1.40;99.90;;;;;;5094487;28;20062;-95
2021/12/27 12:13:47;;;;;;;189.40;44.85;;;2.30;99.90;;;;;;5117234;27;20097;-94
2021/12/27 12:16:23;;;;;;;206.13;44.30;;;1.40;99.90;;;;;;5105800;28;20051;-95
2021/12/27 12:18:52;;;;;;;208.55;43.67;;;3.00;99.90;;;;;;5086304;27;20653;-93
2021/12/27 12:21:33;;;;;;;220.80;45.38;;;2.30;99.90;;;;;;5084468;27;20039;-95
2021/12/27 12:24:03;;;;;;;199.30;41.80;;;2.70;99.90;;;;;;5099811;28;20399;-95
2021/12/27 12:26:45;;;;;;;177.27;39.33;;;1.60;99.90;;;;;;5095203;27;20047;-95
2021/12/27 12:29:11;;;;;;;279.08;51.08;;;2.40;99.90;;;;;;5105914;28;20510;-94
2021/12/27 12:31:37;;;;;;;215.68;40.70;;;1.50;99.90;;;;;;5098819;27;20558;-95
2021/12/27 12:34:20;;;;;;;214.30;39.50;;;2.40;99.90;;;;;;5096532;28;20071;-95
2021/12/27 12:37:09;;;;;;;162.95;34.20;;;1.40;99.90;;;;;;5120174;28;20143;-95
2021/12/27 12:39:46;;;;;;;211.60;38.13;;;2.10;99.90;;;;;;5101006;28;21030;-95
2021/12/27 12:42:16;;;;;;;224.45;43.00;;;2.30;99.90;;;;;;5096024;28;20039;-94
2021/12/27 12:44:52;;;;;;;296.30;42.83;;;2.30;99.90;;;;;;5118956;27;20038;-96
2021/12/27 12:47:19;;;;;;;223.70;41.83;;;1.40;99.90;;;;;;5100583;28;20122;-95
2021/12/27 12:49:45;;;;;;;291.00;45.58;;;1.10;99.90;;;;;;5087930;28;20043;-94
2021/12/27 12:52:12;;;;;;;289.00;41.63;;;2.60;99.90;;;;;;5083487;28;20039;-95
2021/12/27 12:54:42;;;;;;;221.18;39.33;;;2.40;99.90;;;;;;5096749;28;20043;-95
2021/12/27 12:57:09;;;;;;;266.08;39.63;;;1.40;99.90;;;;;;5102550;27;20047;-96
2021/12/27 12:59:42;;;;;;;261.50;40.67;;;1.50;99.90;;;;;;5120706;27;20090;-95